createdAt,value
2022-12-27T00:01:00.291Z,17.84
2022-12-27T00:03:32.984Z,17.82
2022-12-27T00:06:19.442Z,17.86
2022-12-27T00:08:53.220Z,17.79
2022-12-27T00:11:31.493Z,17.80
2022-12-27T00:14:07.146Z,17.74
2022-12-27T00:16:39.886Z,17.73
2022-12-27T00:19:12.702Z,17.74
2022-12-27T00:21:45.405Z,17.70
2022-12-27T00:24:17.979Z,17.66
2022-12-27T00:26:51.555Z,17.66
2022-12-27T00:29:24.436Z,17.69
2022-12-27T00:31:59.237Z,17.68
2022-12-27T00:34:31.953Z,17.66
2022-12-27T00:37:04.573Z,17.65
2022-12-27T00:39:37.144Z,17.65
2022-12-27T00:42:09.917Z,17.62
2022-12-27T00:44:43.407Z,17.60
2022-12-27T00:47:16.094Z,17.59
2022-12-27T00:49:48.746Z,17.61
2022-12-27T00:52:21.259Z,17.56
2022-12-27T00:54:53.899Z,17.56
2022-12-27T00:57:26.552Z,17.56
2022-12-27T00:59:59.948Z,17.55
2022-12-27T01:02:35.034Z,17.55
2022-12-27T01:05:08.406Z,17.53
2022-12-27T01:07:41.238Z,17.55
2022-12-27T01:10:14.326Z,17.52
2022-12-27T01:12:47.113Z,17.52
2022-12-27T01:15:19.815Z,17.53
2022-12-27T01:17:52.508Z,17.52
2022-12-27T01:20:25.077Z,17.47
2022-12-27T01:22:57.662Z,17.50
2022-12-27T01:25:30.267Z,17.44
2022-12-27T01:28:02.893Z,17.45
2022-12-27T01:30:35.473Z,17.45
2022-12-27T01:33:08.181Z,17.46
2022-12-27T01:35:40.811Z,17.46
2022-12-27T01:38:13.904Z,17.42
2022-12-27T01:40:46.595Z,17.43
2022-12-27T01:43:19.807Z,17.42
2022-12-27T01:45:52.470Z,17.43
2022-12-27T01:48:25.429Z,17.40
2022-12-27T01:51:04.853Z,17.37
2022-12-27T01:53:44.428Z,17.37
2022-12-27T01:56:31.528Z,17.41
2022-12-27T01:59:09.796Z,17.38
2022-12-27T02:01:46.529Z,17.35
2022-12-27T02:04:26.241Z,17.31
2022-12-27T02:07:00.747Z,17.36
2022-12-27T02:09:51.076Z,17.38
2022-12-27T02:12:26.380Z,17.28
2022-12-27T02:14:59.225Z,17.29
2022-12-27T02:17:33.643Z,17.30
2022-12-27T02:20:24.719Z,17.39
2022-12-27T02:23:53.294Z,17.43
2022-12-27T02:26:45.973Z,17.37
2022-12-27T02:29:32.983Z,17.27
2022-12-27T02:32:22.817Z,17.26
2022-12-27T02:35:25.502Z,17.39
2022-12-27T02:38:07.694Z,17.25
2022-12-27T02:41:03.354Z,17.26
2022-12-27T02:43:54.613Z,17.24
2022-12-27T02:46:49.485Z,17.23
2022-12-27T02:49:58.910Z,17.56
2022-12-27T02:53:05.225Z,17.37
2022-12-27T02:56:24.721Z,17.38
2022-12-27T03:00:03.969Z,17.37
2022-12-27T03:03:28.912Z,17.28
2022-12-27T03:06:41.529Z,17.34
2022-12-27T03:09:50.484Z,17.25
2022-12-27T03:13:03.082Z,17.25
2022-12-27T03:15:57.888Z,17.28
2022-12-27T03:19:04.769Z,17.52
2022-12-27T03:22:04.127Z,17.21
2022-12-27T03:24:58.712Z,17.18
2022-12-27T03:27:36.901Z,17.15
2022-12-27T03:30:30.077Z,17.12
2022-12-27T03:33:12.960Z,17.13
2022-12-27T03:36:17.857Z,17.13
2022-12-27T03:39:26.576Z,17.45
2022-12-27T03:42:30.906Z,17.17
2022-12-27T03:45:04.065Z,17.14
2022-12-27T03:48:00.556Z,17.16
2022-12-27T03:50:46.486Z,17.09
2022-12-27T03:53:41.567Z,17.20
2022-12-27T03:56:14.305Z,17.10
2022-12-27T03:58:46.929Z,17.01
2022-12-27T04:01:19.530Z,17.04
2022-12-27T04:03:52.266Z,17.07
2022-12-27T04:06:24.790Z,17.00
2022-12-27T04:09:15.971Z,17.04
2022-12-27T04:12:07.540Z,17.02
2022-12-27T04:14:58.901Z,17.05
2022-12-27T04:17:49.855Z,17.02
2022-12-27T04:20:41.374Z,16.97
2022-12-27T04:23:32.495Z,16.99
2022-12-27T04:26:23.779Z,17.00
2022-12-27T04:29:15.306Z,16.99
2022-12-27T04:32:06.374Z,16.99
2022-12-27T04:34:44.764Z,16.95
2022-12-27T04:37:20.432Z,16.93
2022-12-27T04:40:11.683Z,16.94
2022-12-27T04:43:02.991Z,16.89
2022-12-27T04:45:54.006Z,16.93
2022-12-27T04:48:48.638Z,16.86
2022-12-27T04:51:39.675Z,16.86
2022-12-27T04:54:41.331Z,16.87
2022-12-27T04:57:14.072Z,16.88
2022-12-27T05:00:05.742Z,16.85
2022-12-27T05:02:38.967Z,16.84
2022-12-27T05:05:12.396Z,16.83
2022-12-27T05:08:03.394Z,16.83
2022-12-27T05:10:54.443Z,16.81
2022-12-27T05:13:45.527Z,16.77
2022-12-27T05:16:18.234Z,16.79
2022-12-27T05:18:52.635Z,16.77
2022-12-27T05:21:25.327Z,17.12
2022-12-27T05:24:16.818Z,16.82
2022-12-27T05:26:49.657Z,16.78
2022-12-27T05:29:22.173Z,16.73
2022-12-27T05:31:54.829Z,16.72
2022-12-27T05:34:27.518Z,16.69
2022-12-27T05:37:00.102Z,16.72
2022-12-27T05:39:32.669Z,16.65
2022-12-27T05:42:05.481Z,16.69
2022-12-27T05:44:38.114Z,16.71
2022-12-27T05:47:10.775Z,16.72
2022-12-27T05:49:43.427Z,16.72
2022-12-27T05:52:15.928Z,16.76
2022-12-27T05:54:48.525Z,16.64
2022-12-27T05:57:21.056Z,16.82
2022-12-27T05:59:53.582Z,16.87
2022-12-27T06:02:26.428Z,16.88
2022-12-27T06:04:59.252Z,16.99
2022-12-27T06:07:31.987Z,17.05
2022-12-27T06:10:07.501Z,17.12
2022-12-27T06:12:40.174Z,17.17
2022-12-27T06:15:12.848Z,17.25
2022-12-27T06:17:45.467Z,17.30
2022-12-27T06:20:19.089Z,17.36
2022-12-27T06:22:51.769Z,17.45
2022-12-27T06:25:24.432Z,17.52
2022-12-27T06:27:57.104Z,17.57
2022-12-27T06:30:35.805Z,17.65
2022-12-27T06:33:08.781Z,17.73
2022-12-27T06:35:41.394Z,17.77
2022-12-27T06:38:13.949Z,17.88
2022-12-27T06:40:46.846Z,17.92
2022-12-27T06:43:19.503Z,18.02
2022-12-27T06:46:04.112Z,18.09
2022-12-27T06:48:37.587Z,18.14
2022-12-27T06:51:13.028Z,18.18
2022-12-27T06:53:49.180Z,18.25
2022-12-27T06:56:23.494Z,18.27
2022-12-27T06:58:56.465Z,18.27
2022-12-27T07:01:29.188Z,18.29
2022-12-27T07:04:02.044Z,18.33
2022-12-27T07:06:37.613Z,18.44
2022-12-27T07:09:10.312Z,18.46
2022-12-27T07:11:43.010Z,18.49
2022-12-27T07:14:15.616Z,18.51
2022-12-27T07:16:49.763Z,18.50
2022-12-27T07:19:22.274Z,18.82
2022-12-27T07:21:54.954Z,18.57
2022-12-27T07:24:27.472Z,18.55
2022-12-27T07:27:02.027Z,18.56
2022-12-27T07:29:34.720Z,18.50
2022-12-27T07:32:07.443Z,18.55
2022-12-27T07:34:39.984Z,18.58
2022-12-27T07:37:12.681Z,18.49
2022-12-27T07:39:45.562Z,18.57
2022-12-27T07:42:18.215Z,18.60
2022-12-27T07:44:50.925Z,18.59
2022-12-27T07:47:23.623Z,18.59
2022-12-27T07:49:56.127Z,18.57
2022-12-27T07:52:28.798Z,18.60
2022-12-27T07:55:01.414Z,18.62
2022-12-27T07:57:34.059Z,18.50
2022-12-27T08:00:07.994Z,18.62
2022-12-27T08:02:40.713Z,18.64
2022-12-27T08:05:13.488Z,18.65
2022-12-27T08:07:46.147Z,18.67
2022-12-27T08:10:19.043Z,18.65
2022-12-27T08:12:51.549Z,18.63
2022-12-27T08:15:24.261Z,18.59
2022-12-27T08:17:56.803Z,18.67
2022-12-27T08:20:29.757Z,18.69
2022-12-27T08:23:02.406Z,18.72
2022-12-27T08:25:35.028Z,18.72
2022-12-27T08:28:12.414Z,18.71
2022-12-27T08:30:46.468Z,18.77
2022-12-27T08:33:19.422Z,19.07
2022-12-27T08:35:54.283Z,18.81
2022-12-27T08:38:27.169Z,18.83
2022-12-27T08:41:00.152Z,18.83
2022-12-27T08:43:32.738Z,18.81
2022-12-27T08:46:08.645Z,18.73
2022-12-27T08:48:41.326Z,18.78
2022-12-27T08:51:18.486Z,18.81
2022-12-27T08:53:55.935Z,18.87
2022-12-27T08:56:28.859Z,18.82
2022-12-27T08:59:01.760Z,18.84
2022-12-27T09:01:34.441Z,18.89
2022-12-27T09:04:07.107Z,18.91
2022-12-27T09:06:41.038Z,18.91
2022-12-27T09:09:14.277Z,18.94
2022-12-27T09:11:46.965Z,18.96
2022-12-27T09:14:20.136Z,18.94
2022-12-27T09:16:52.652Z,18.98
2022-12-27T09:19:25.505Z,18.93
2022-12-27T09:21:58.423Z,18.98
2022-12-27T09:24:30.927Z,19.01
2022-12-27T09:27:03.568Z,19.05
2022-12-27T09:29:36.244Z,19.06
2022-12-27T09:32:08.805Z,19.07
2022-12-27T09:34:41.483Z,19.05
2022-12-27T09:37:14.054Z,19.02
2022-12-27T09:39:46.542Z,19.08
2022-12-27T09:42:56.667Z,19.13
2022-12-27T09:45:44.334Z,19.12
2022-12-27T09:48:40.178Z,19.29
2022-12-27T09:51:25.098Z,19.20
2022-12-27T09:54:10.870Z,19.19
2022-12-27T09:59:46.885Z,19.22
2022-12-27T10:02:26.123Z,19.25
2022-12-27T10:08:19.847Z,19.38
2022-12-27T10:11:30.109Z,19.27
2022-12-27T10:14:21.097Z,19.28
2022-12-27T10:17:05.535Z,19.30
2022-12-27T10:20:04.565Z,19.63
2022-12-27T10:22:48.102Z,19.40
2022-12-27T10:25:24.385Z,19.31
2022-12-27T10:28:13.931Z,19.35
2022-12-27T10:30:46.541Z,19.36
2022-12-27T10:33:29.423Z,19.37
2022-12-27T10:36:11.665Z,19.31
2022-12-27T10:38:45.236Z,19.33
2022-12-27T10:41:50.242Z,19.44
2022-12-27T10:44:23.489Z,19.69
2022-12-27T10:46:56.850Z,19.42
2022-12-27T10:49:32.618Z,19.41
2022-12-27T10:52:35.738Z,19.53
2022-12-27T10:55:31.646Z,19.52
2022-12-27T10:58:26.250Z,19.52
2022-12-27T11:00:59.415Z,19.40
2022-12-27T11:03:32.303Z,19.38
2022-12-27T11:06:17.035Z,19.38
2022-12-27T11:08:51.857Z,19.41
2022-12-27T11:11:29.554Z,19.39
2022-12-27T11:14:18.200Z,19.42
2022-12-27T11:16:50.949Z,19.40
2022-12-27T11:19:27.388Z,19.37
2022-12-27T11:22:07.513Z,19.41
2022-12-27T11:24:49.010Z,19.44
2022-12-27T11:27:29.112Z,19.43
2022-12-27T11:30:01.958Z,19.43
2022-12-27T11:32:34.610Z,19.46
2022-12-27T11:35:20.118Z,19.45
2022-12-27T11:37:52.854Z,19.45
2022-12-27T11:40:30.635Z,19.48
2022-12-27T11:43:17.698Z,19.47
2022-12-27T11:45:52.066Z,19.45
2022-12-27T11:48:40.745Z,19.49
2022-12-27T11:52:05.732Z,19.60
2022-12-27T11:55:16.056Z,19.56
2022-12-27T11:58:27.491Z,19.61
2022-12-27T12:01:35.117Z,19.68
2022-12-27T12:04:30.924Z,19.54
2022-12-27T12:07:35.484Z,19.59
2022-12-27T12:10:24.803Z,19.66
2022-12-27T12:13:53.043Z,19.65
2022-12-27T12:17:22.489Z,19.64
2022-12-27T12:20:22.832Z,19.64
2022-12-27T12:23:39.375Z,19.67
2022-12-27T12:26:22.921Z,19.59
2022-12-27T12:29:25.155Z,19.62
2022-12-27T12:32:19.587Z,19.57
2022-12-27T12:35:21.095Z,19.60
2022-12-27T12:38:25.023Z,19.63
2022-12-27T12:41:23.379Z,19.71
2022-12-27T12:44:36.532Z,19.69
2022-12-27T12:47:57.128Z,19.70
2022-12-27T12:50:45.327Z,19.64
2022-12-27T12:53:43.211Z,19.67
2022-12-27T12:56:41.874Z,19.63
2022-12-27T12:59:42.191Z,19.75
2022-12-27T13:02:51.802Z,19.79
2022-12-27T13:05:58.208Z,19.72
2022-12-27T13:08:42.796Z,19.68
2022-12-27T13:11:34.250Z,19.72
2022-12-27T13:14:41.788Z,19.71
2022-12-27T13:18:07.970Z,19.82
2022-12-27T13:20:41.423Z,19.72
2022-12-27T13:23:45.157Z,19.75
2022-12-27T13:26:38.576Z,19.70
2022-12-27T13:29:52.631Z,19.72
2022-12-27T13:33:00.163Z,19.77
2022-12-27T13:36:12.827Z,19.84
2022-12-27T13:39:07.217Z,19.74
2022-12-27T13:42:22.930Z,19.85
2022-12-27T13:45:32.395Z,19.87
2022-12-27T13:48:14.994Z,19.81
2022-12-27T13:51:37.308Z,19.88
2022-12-27T13:54:31.652Z,19.89
2022-12-27T13:57:19.034Z,19.84
2022-12-27T14:00:19.094Z,19.89
2022-12-27T14:03:23.224Z,19.88
2022-12-27T14:06:35.128Z,19.92
2022-12-27T14:09:38.385Z,19.94
2022-12-27T14:12:51.776Z,19.82
2022-12-27T14:16:18.338Z,19.84
2022-12-27T14:19:11.973Z,19.84
2022-12-27T14:22:20.842Z,19.93
2022-12-27T14:25:51.839Z,19.91
2022-12-27T14:29:31.952Z,20.00
2022-12-27T14:32:41.367Z,19.93
2022-12-27T14:35:54.442Z,19.82
2022-12-27T14:38:52.140Z,19.90
2022-12-27T14:42:14.652Z,19.86
2022-12-27T14:45:39.888Z,19.95
2022-12-27T14:48:51.782Z,19.95
2022-12-27T14:52:17.943Z,19.92
2022-12-27T14:55:08.518Z,19.95
2022-12-27T14:58:02.814Z,19.97
2022-12-27T15:01:23.731Z,20.03
2022-12-27T15:04:29.620Z,19.91
2022-12-27T15:07:17.255Z,19.87
2022-12-27T15:10:42.601Z,19.83
2022-12-27T15:13:33.568Z,19.86
2022-12-27T15:16:33.724Z,19.85
2022-12-27T15:19:29.544Z,19.95
2022-12-27T15:22:30.538Z,19.85
2022-12-27T15:25:28.769Z,19.87
2022-12-27T15:28:18.273Z,19.82
2022-12-27T15:31:00.499Z,19.81
2022-12-27T15:34:25.765Z,19.90
2022-12-27T15:36:58.784Z,19.84
2022-12-27T15:39:34.278Z,19.81
2022-12-27T15:42:18.976Z,19.87
2022-12-27T15:45:19.302Z,19.79
2022-12-27T15:48:36.539Z,19.82
2022-12-27T15:51:52.792Z,19.93
2022-12-27T15:55:12.206Z,19.90
2022-12-27T15:58:19.790Z,19.89
2022-12-27T16:01:23.807Z,19.96
2022-12-27T16:03:58.730Z,19.83
2022-12-27T16:06:34.262Z,19.85
2022-12-27T16:09:35.579Z,19.90
2022-12-27T16:12:31.045Z,19.82
2022-12-27T16:15:44.609Z,19.95
2022-12-27T16:18:17.889Z,19.85
2022-12-27T16:21:26.707Z,19.97
2022-12-27T16:24:15.171Z,19.87
2022-12-27T16:27:02.066Z,19.85
2022-12-27T16:29:43.966Z,19.80
2022-12-27T16:32:26.482Z,19.85
2022-12-27T16:35:16.781Z,19.89
2022-12-27T16:37:55.681Z,19.80
2022-12-27T16:40:55.398Z,19.82
2022-12-27T16:44:03.252Z,19.79
2022-12-27T16:46:54.526Z,19.93
2022-12-27T16:49:59.399Z,19.82
2022-12-27T16:53:29.579Z,19.87
2022-12-27T16:56:24.314Z,19.92
2022-12-27T16:58:57.102Z,20.13
2022-12-27T17:01:49.926Z,19.95
2022-12-27T17:04:59.202Z,19.95
2022-12-27T17:07:50.734Z,19.86
2022-12-27T17:10:35.456Z,19.79
2022-12-27T17:13:16.796Z,19.77
2022-12-27T17:16:01.305Z,19.70
2022-12-27T17:18:58.804Z,19.74
2022-12-27T17:21:37.490Z,19.74
2022-12-27T17:24:19.876Z,19.75
2022-12-27T17:27:29.741Z,19.75
2022-12-27T17:30:28.318Z,19.78
2022-12-27T17:33:44.924Z,19.79
2022-12-27T17:36:52.129Z,20.04
2022-12-27T17:40:04.387Z,19.78
2022-12-27T17:43:18.458Z,19.74
2022-12-27T17:46:20.282Z,19.79
2022-12-27T17:48:55.953Z,19.66
2022-12-27T17:51:33.384Z,19.60
2022-12-27T17:54:44.913Z,19.73
2022-12-27T17:57:39.118Z,19.60
2022-12-27T18:00:26.159Z,19.66
2022-12-27T18:03:08.390Z,19.55
2022-12-27T18:05:45.477Z,19.54
2022-12-27T18:08:29.005Z,19.52
2022-12-27T18:11:05.935Z,19.52
2022-12-27T18:13:47.219Z,19.49
2022-12-27T18:16:37.331Z,19.49
2022-12-27T18:19:19.710Z,19.48
2022-12-27T18:22:00.456Z,19.42
2022-12-27T18:24:34.024Z,19.40
2022-12-27T18:27:17.071Z,19.40
2022-12-27T18:29:50.522Z,19.38
2022-12-27T18:32:25.772Z,19.33
2022-12-27T18:35:03.105Z,19.31
2022-12-27T18:37:39.731Z,19.26
2022-12-27T18:40:25.935Z,19.32
2022-12-27T18:42:58.791Z,19.25
2022-12-27T18:45:34.638Z,19.25
2022-12-27T18:48:14.076Z,19.23
2022-12-27T18:50:53.742Z,19.14
2022-12-27T18:53:38.180Z,19.20
2022-12-27T18:56:13.663Z,19.52
2022-12-27T18:59:03.631Z,19.27
2022-12-27T19:01:42.998Z,19.15
2022-12-27T19:04:17.158Z,19.14
2022-12-27T19:07:11.716Z,19.47
2022-12-27T19:09:57.047Z,19.18
2022-12-27T19:12:39.583Z,19.13
2022-12-27T19:15:28.436Z,19.08
2022-12-27T19:18:06.645Z,19.02
2022-12-27T19:20:41.825Z,18.96
2022-12-27T19:23:49.425Z,19.16
2022-12-27T19:26:31.919Z,18.93
2022-12-27T19:29:16.437Z,18.91
2022-12-27T19:32:02.867Z,19.26
2022-12-27T19:34:54.775Z,19.04
2022-12-27T19:37:30.552Z,18.91
2022-12-27T19:40:04.536Z,18.84
2022-12-27T19:42:37.111Z,18.84
2022-12-27T19:45:15.366Z,18.72
2022-12-27T19:47:51.287Z,18.74
2022-12-27T19:50:23.989Z,18.71
2022-12-27T19:52:56.836Z,18.73
2022-12-27T19:55:29.422Z,18.71
2022-12-27T19:58:02.037Z,18.70
2022-12-27T20:00:34.717Z,18.70
2022-12-27T20:03:07.441Z,18.69
2022-12-27T20:06:14.581Z,18.67
2022-12-27T20:08:46.399Z,18.64
2022-12-27T20:11:23.529Z,18.60
2022-12-27T20:13:56.238Z,18.62
2022-12-27T20:16:28.917Z,18.60
2022-12-27T20:19:02.764Z,18.58
2022-12-27T20:21:35.449Z,18.56
2022-12-27T20:24:12.992Z,18.56
2022-12-27T20:26:45.711Z,18.50
2022-12-27T20:29:20.032Z,18.53
2022-12-27T20:31:52.717Z,18.48
2022-12-27T20:34:25.879Z,18.53
2022-12-27T20:36:58.559Z,18.47
2022-12-27T20:39:31.128Z,18.43
2022-12-27T20:42:04.138Z,18.58
2022-12-27T20:44:37.069Z,18.64
2022-12-27T20:47:09.756Z,18.66
2022-12-27T20:49:42.430Z,18.72
2022-12-27T20:52:15.190Z,18.76
2022-12-27T20:54:47.832Z,18.79
2022-12-27T20:57:21.455Z,18.78
2022-12-27T20:59:54.115Z,18.91
2022-12-27T21:02:27.817Z,18.92
2022-12-27T21:05:01.536Z,18.96
2022-12-27T21:07:34.714Z,19.03
2022-12-27T21:10:10.251Z,19.05
2022-12-27T21:12:42.937Z,19.09
2022-12-27T21:15:15.557Z,19.12
2022-12-27T21:17:48.122Z,19.10
2022-12-27T21:20:20.760Z,19.13
2022-12-27T21:22:53.331Z,19.17
2022-12-27T21:25:25.934Z,19.17
2022-12-27T21:27:58.546Z,19.25
2022-12-27T21:30:31.114Z,19.26
2022-12-27T21:33:03.877Z,19.29
2022-12-27T21:35:36.497Z,19.35
2022-12-27T21:38:09.037Z,19.32
2022-12-27T21:40:41.569Z,19.33
2022-12-27T21:43:14.312Z,19.37
2022-12-27T21:45:46.929Z,19.37
2022-12-27T21:48:19.736Z,19.39
2022-12-27T21:50:52.290Z,19.41
2022-12-27T21:53:25.140Z,19.39
2022-12-27T21:55:58.486Z,19.37
2022-12-27T21:58:36.779Z,19.41
2022-12-27T22:01:18.984Z,19.35
2022-12-27T22:03:54.173Z,19.37
2022-12-27T22:06:31.356Z,19.35
2022-12-27T22:09:07.894Z,19.35
2022-12-27T22:11:40.542Z,19.34
2022-12-27T22:14:13.089Z,19.33
2022-12-27T22:16:45.800Z,19.27
2022-12-27T22:19:18.371Z,19.31
2022-12-27T22:21:52.001Z,19.29
2022-12-27T22:24:25.590Z,19.31
2022-12-27T22:26:58.402Z,19.30
2022-12-27T22:29:35.372Z,19.32
2022-12-27T22:32:08.317Z,19.28
2022-12-27T22:34:41.120Z,19.25
2022-12-27T22:37:13.709Z,19.23
2022-12-27T22:39:46.187Z,19.18
2022-12-27T22:42:18.903Z,19.15
2022-12-27T22:44:51.456Z,19.20
2022-12-27T22:47:27.366Z,19.17
2022-12-27T22:50:00.688Z,19.16
2022-12-27T22:52:33.263Z,19.14
2022-12-27T22:55:07.831Z,19.11
2022-12-27T22:57:41.236Z,19.12
2022-12-27T23:00:14.661Z,19.07
2022-12-27T23:02:47.519Z,19.09
2022-12-27T23:05:20.115Z,19.07
2022-12-27T23:08:05.261Z,18.96
2022-12-27T23:10:39.519Z,19.05
2022-12-27T23:13:12.040Z,19.00
2022-12-27T23:15:44.547Z,19.00
2022-12-27T23:18:17.210Z,18.94
2022-12-27T23:21:21.382Z,18.94
2022-12-27T23:23:44.059Z,18.97
2022-12-27T23:26:22.741Z,18.82
2022-12-27T23:28:55.742Z,18.90
2022-12-27T23:31:29.761Z,18.88
2022-12-27T23:34:02.482Z,18.85
2022-12-27T23:36:35.290Z,18.86
2022-12-27T23:39:08.304Z,18.82
2022-12-27T23:41:40.991Z,18.81
2022-12-27T23:44:13.675Z,18.78
2022-12-27T23:46:46.371Z,18.81
2022-12-27T23:49:19.184Z,18.78
2022-12-27T23:51:52.472Z,18.77
2022-12-27T23:54:25.005Z,18.77
2022-12-27T23:56:57.882Z,18.69
2022-12-27T23:59:30.510Z,18.74
